Time,TemperatureF,DewpointF,PressureIn,WindDirection,WindDirectionDegrees,WindSpeedMPH,WindSpeedGustMPH,Humidity,HourlyPrecipIn,Conditions,Clouds,dailyrainin,SoftwareType,DateUTC
2013-06-16 00:02:00,62.0,57.0,-100.00,South,188,2.0,2.0,84,0.00,,,0.01,,2013-06-16 04:02:00,
2013-06-16 00:12:00,62.0,57.0,-100.00,South,188,2.0,2.0,84,0.00,,,0.01,,2013-06-16 04:12:00,
2013-06-16 00:23:00,62.0,57.0,-100.00,South,188,2.0,2.0,84,0.00,,,0.01,,2013-06-16 04:23:00,
2013-06-16 00:34:00,61.0,58.0,-100.00,NW,306,0.0,1.0,90,0.00,,,0.01,,2013-06-16 04:34:00,
2013-06-16 00:43:00,61.0,58.0,-100.00,NW,306,0.0,1.0,90,0.00,,,0.01,,2013-06-16 04:43:00,
2013-06-16 00:53:00,61.0,58.0,-100.00,South,186,1.0,2.0,89,0.00,,,0.01,,2013-06-16 04:53:00,
2013-06-16 01:02:00,61.0,58.0,-100.00,South,186,0.0,0.0,89,0.00,,,0.01,,2013-06-16 05:02:00,
2013-06-16 01:12:00,61.0,58.0,-100.00,South,186,0.0,0.0,89,0.00,,,0.01,,2013-06-16 05:12:00,
2013-06-16 01:22:00,61.0,58.0,-100.00,South,186,0.0,0.0,89,0.00,,,0.01,,2013-06-16 05:22:00,
2013-06-16 01:34:00,60.0,57.0,-100.00,NNW,340,0.0,0.0,92,0.00,,,0.01,,2013-06-16 05:34:00,
2013-06-16 01:43:00,60.0,58.0,-100.00,NW,319,0.0,0.0,93,0.00,,,0.01,,2013-06-16 05:43:00,
2013-06-16 01:52:00,60.0,58.0,-100.00,NW,319,0.0,0.0,93,0.00,,,0.01,,2013-06-16 05:52:00,
2013-06-16 02:02:00,60.0,57.0,-100.00,SSW,206,1.0,2.0,92,0.00,,,0.01,,2013-06-16 06:02:00,
2013-06-16 02:12:00,60.0,57.0,-100.00,SSW,206,1.0,2.0,92,0.00,,,0.01,,2013-06-16 06:12:00,
2013-06-16 02:23:00,60.0,57.0,-100.00,SSW,206,1.0,2.0,92,0.00,,,0.01,,2013-06-16 06:23:00,
2013-06-16 02:33:00,60.0,57.0,-100.00,South,189,0.0,1.0,91,0.00,,,0.01,,2013-06-16 06:33:00,
2013-06-16 02:43:00,60.0,57.0,-100.00,South,189,0.0,1.0,91,0.00,,,0.01,,2013-06-16 06:43:00,
2013-06-16 02:52:00,58.0,56.0,-100.00,North,3,1.0,2.0,93,0.00,,,0.01,,2013-06-16 06:52:00,
2013-06-16 03:01:00,59.0,57.0,-100.00,NNW,336,1.0,1.0,93,0.00,,,0.01,,2013-06-16 07:01:00,
2013-06-16 03:12:00,59.0,57.0,-100.00,NNW,336,1.0,1.0,93,0.00,,,0.01,,2013-06-16 07:12:00,
2013-06-16 03:23:00,59.0,57.0,-100.00,NNW,336,1.0,1.0,93,0.00,,,0.01,,2013-06-16 07:23:00,
2013-06-16 03:33:00,59.0,57.0,-100.00,WSW,254,0.0,0.0,93,0.00,,,0.01,,2013-06-16 07:33:00,
2013-06-16 03:43:00,59.0,57.0,-100.00,WSW,254,0.0,0.0,93,0.00,,,0.01,,2013-06-16 07:43:00,
2013-06-16 03:50:00,59.0,56.0,-100.00,SSW,195,1.0,2.0,91,0.00,,,0.01,,2013-06-16 07:50:00,
2013-06-16 03:53:00,59.0,57.0,-100.00,SSW,208,1.0,2.0,93,0.00,,,0.01,,2013-06-16 07:53:00,
2013-06-16 04:02:00,58.0,56.0,-100.00,NNW,343,0.0,1.0,92,0.00,,,0.01,,2013-06-16 08:02:00,
2013-06-16 04:12:00,58.0,56.0,-100.00,NNW,343,0.0,1.0,92,0.00,,,0.01,,2013-06-16 08:12:00,
2013-06-16 04:22:00,58.0,56.0,-100.00,NNW,343,0.0,1.0,92,0.00,,,0.01,,2013-06-16 08:22:00,
2013-06-16 04:34:00,59.0,56.0,-100.00,SSW,195,1.0,2.0,91,0.00,,,0.01,,2013-06-16 08:34:00,
2013-06-16 04:43:00,59.0,56.0,-100.00,SSW,195,1.0,2.0,91,0.00,,,0.01,,2013-06-16 08:43:00,
2013-06-16 05:02:00,59.0,56.0,-100.00,South,186,0.0,0.0,90,0.00,,,0.00,,2013-06-16 09:02:00,
2013-06-16 05:11:00,59.0,56.0,-100.00,South,186,0.0,0.0,90,0.00,,,0.00,,2013-06-16 09:11:00,
2013-06-16 05:22:00,59.0,56.0,-100.00,South,188,0.0,0.0,91,0.00,,,0.00,,2013-06-16 09:22:00,
2013-06-16 05:33:00,59.0,56.0,-100.00,South,188,0.0,0.0,91,0.00,,,0.00,,2013-06-16 09:33:00,
2013-06-16 05:43:00,58.0,56.0,-100.00,NNW,337,1.0,1.0,91,0.00,,,0.00,,2013-06-16 09:43:00,
2013-06-16 05:52:00,58.0,56.0,-100.00,NNW,337,1.0,1.0,91,0.00,,,0.00,,2013-06-16 09:52:00,
2013-06-16 06:02:00,57.0,56.0,-100.00,North,4,1.0,2.0,93,0.00,,,0.00,,2013-06-16 10:02:00,
2013-06-16 06:12:00,57.0,56.0,-100.00,North,4,1.0,2.0,93,0.00,,,0.00,,2013-06-16 10:12:00,
2013-06-16 06:22:00,57.0,56.0,-100.00,North,4,1.0,2.0,93,0.00,,,0.00,,2013-06-16 10:22:00,
2013-06-16 06:33:00,57.0,55.0,-100.00,NNW,332,1.0,2.0,94,0.00,,,0.00,,2013-06-16 10:33:00,
2013-06-16 06:43:00,57.0,55.0,-100.00,NW,305,0.0,1.0,94,0.00,,,0.00,,2013-06-16 10:43:00,
2013-06-16 06:53:00,57.0,55.0,-100.00,NW,305,0.0,1.0,94,0.00,,,0.00,,2013-06-16 10:53:00,
2013-06-16 07:02:00,58.0,56.0,-100.00,NNW,342,2.0,2.0,93,0.00,,,0.00,,2013-06-16 11:02:00,
2013-06-16 07:12:00,58.0,56.0,-100.00,NNW,342,2.0,2.0,93,0.00,,,0.00,,2013-06-16 11:12:00,
2013-06-16 07:22:00,58.0,56.0,-100.00,NNW,342,2.0,2.0,93,0.00,,,0.00,,2013-06-16 11:22:00,
2013-06-16 07:30:00,64.0,58.0,-100.00,SSE,158,1.0,2.0,80,0.00,,,0.00,,2013-06-16 11:30:00,
2013-06-16 07:34:00,58.0,56.0,-100.00,West,275,0.0,1.0,93,0.00,,,0.00,,2013-06-16 11:34:00,
2013-06-16 07:43:00,60.0,57.0,-100.00,NNW,344,2.0,3.0,89,0.00,,,0.00,,2013-06-16 11:43:00,
2013-06-16 07:52:00,60.0,57.0,-100.00,NNW,344,2.0,3.0,89,0.00,,,0.00,,2013-06-16 11:52:00,
2013-06-16 08:02:00,64.0,58.0,-100.00,SSE,158,1.0,2.0,80,0.00,,,0.00,,2013-06-16 12:02:00,
2013-06-16 08:12:00,64.0,58.0,-100.00,SSE,158,1.0,2.0,80,0.00,,,0.00,,2013-06-16 12:12:00,
2013-06-16 08:22:00,64.0,58.0,-100.00,SSE,158,1.0,2.0,80,0.00,,,0.00,,2013-06-16 12:22:00,
2013-06-16 08:43:00,68.0,59.0,-100.00,South,185,6.0,8.0,72,0.00,,,0.00,,2013-06-16 12:43:00,
2013-06-16 08:53:00,68.0,59.0,-100.00,South,185,6.0,8.0,72,0.00,,,0.00,,2013-06-16 12:53:00,
2013-06-16 09:01:00,69.0,60.0,-100.00,South,182,9.0,11.0,72,0.00,,,0.00,,2013-06-16 13:01:00,
2013-06-16 09:12:00,69.0,60.0,-100.00,South,182,9.0,11.0,72,0.00,,,0.00,,2013-06-16 13:12:00,
2013-06-16 09:22:00,69.0,60.0,-100.00,South,182,9.0,11.0,72,0.00,,,0.00,,2013-06-16 13:22:00,
2013-06-16 09:34:00,70.0,60.0,-100.00,South,174,6.0,8.0,71,0.00,,,0.00,,2013-06-16 13:34:00,
2013-06-16 09:43:00,72.0,60.0,-100.00,SSW,193,8.0,13.0,65,0.00,,,0.00,,2013-06-16 13:43:00,
2013-06-16 09:53:00,72.0,60.0,-100.00,SSW,193,8.0,13.0,65,0.00,,,0.00,,2013-06-16 13:53:00,
2013-06-16 10:02:00,73.0,60.0,-100.00,South,188,6.0,9.0,64,0.00,,,0.00,,2013-06-16 14:02:00,
2013-06-16 10:12:00,73.0,60.0,-100.00,South,188,6.0,9.0,64,0.00,,,0.00,,2013-06-16 14:12:00,
2013-06-16 10:22:00,73.0,60.0,-100.00,South,188,6.0,9.0,64,0.00,,,0.00,,2013-06-16 14:22:00,
2013-06-16 10:34:00,74.0,61.0,-100.00,South,188,8.0,12.0,64,0.00,,,0.00,,2013-06-16 14:34:00,
2013-06-16 10:43:00,75.0,61.0,-100.00,South,189,9.0,13.0,62,0.00,,,0.00,,2013-06-16 14:43:00,
2013-06-16 10:52:00,75.0,61.0,-100.00,South,189,9.0,13.0,62,0.00,,,0.00,,2013-06-16 14:52:00,
2013-06-16 11:02:00,76.0,62.0,-100.00,South,188,10.0,15.0,63,0.00,,,0.00,,2013-06-16 15:02:00,
2013-06-16 11:12:00,76.0,62.0,-100.00,South,188,10.0,15.0,63,0.00,,,0.00,,2013-06-16 15:12:00,
2013-06-16 11:23:00,76.0,62.0,-100.00,South,188,10.0,15.0,63,0.00,,,0.00,,2013-06-16 15:23:00,
2013-06-16 11:34:00,77.0,63.0,-100.00,SSW,196,6.0,9.0,61,0.00,,,0.00,,2013-06-16 15:34:00,
2013-06-16 11:43:00,77.0,63.0,-100.00,SSW,196,6.0,9.0,61,0.00,,,0.00,,2013-06-16 15:43:00,
2013-06-16 11:52:00,78.0,63.0,-100.00,SSW,193,8.0,11.0,60,0.00,,,0.00,,2013-06-16 15:52:00,
2013-06-16 12:02:00,79.0,63.0,-100.00,South,186,7.0,10.0,58,0.00,,,0.00,,2013-06-16 16:02:00,
2013-06-16 12:12:00,79.0,63.0,-100.00,South,186,7.0,10.0,58,0.00,,,0.00,,2013-06-16 16:12:00,
2013-06-16 12:23:00,79.0,63.0,-100.00,South,186,7.0,10.0,58,0.00,,,0.00,,2013-06-16 16:23:00,
2013-06-16 12:33:00,79.0,64.0,-100.00,South,184,7.0,11.0,60,0.00,,,0.00,,2013-06-16 16:33:00,
2013-06-16 12:43:00,79.0,64.0,-100.00,South,184,7.0,11.0,60,0.00,,,0.00,,2013-06-16 16:43:00,
2013-06-16 12:53:00,79.0,63.0,-100.00,SSW,193,6.0,9.0,59,0.00,,,0.00,,2013-06-16 16:53:00,
2013-06-16 13:02:00,78.0,63.0,-100.00,South,186,7.0,10.0,60,0.00,,,0.00,,2013-06-16 17:02:00,
2013-06-16 13:12:00,78.0,63.0,-100.00,South,186,7.0,10.0,60,0.00,,,0.00,,2013-06-16 17:12:00,
2013-06-16 13:22:00,78.0,63.0,-100.00,South,186,7.0,10.0,60,0.00,,,0.00,,2013-06-16 17:22:00,
2013-06-16 13:34:00,79.0,63.0,-100.00,SSW,193,4.0,6.0,58,0.00,,,0.00,,2013-06-16 17:34:00,
2013-06-16 13:43:00,81.0,62.0,-100.00,SSW,198,6.0,12.0,54,0.00,,,0.00,,2013-06-16 17:43:00,
2013-06-16 13:50:00,79.0,65.0,-100.00,South,185,7.0,9.0,62,0.00,,,0.00,,2013-06-16 17:50:00,
2013-06-16 13:53:00,81.0,62.0,-100.00,SSW,198,6.0,12.0,54,0.00,,,0.00,,2013-06-16 17:53:00,
2013-06-16 14:02:00,79.0,63.0,-100.00,South,189,8.0,11.0,59,0.00,,,0.00,,2013-06-16 18:02:00,
2013-06-16 14:12:00,79.0,63.0,-100.00,South,189,8.0,11.0,59,0.00,,,0.00,,2013-06-16 18:12:00,
2013-06-16 14:22:00,79.0,63.0,-100.00,South,189,8.0,11.0,59,0.00,,,0.00,,2013-06-16 18:22:00,
2013-06-16 14:34:00,79.0,65.0,-100.00,South,185,7.0,9.0,62,0.00,,,0.00,,2013-06-16 18:34:00,
2013-06-16 14:43:00,79.0,65.0,-100.00,South,185,7.0,9.0,62,0.00,,,0.00,,2013-06-16 18:43:00,
2013-06-16 15:02:00,81.0,61.0,-100.00,NW,320,7.0,10.0,49,0.00,,,0.00,,2013-06-16 19:02:00,
2013-06-16 15:12:00,81.0,61.0,-100.00,NW,320,7.0,10.0,49,0.00,,,0.00,,2013-06-16 19:12:00,
2013-06-16 15:22:00,81.0,61.0,-100.00,NW,320,7.0,10.0,49,0.00,,,0.00,,2013-06-16 19:22:00,
2013-06-16 15:34:00,83.0,61.0,-100.00,SW,215,3.0,6.0,48,0.00,,,0.00,,2013-06-16 19:34:00,
2013-06-16 15:43:00,82.0,61.0,-100.00,SW,236,5.0,9.0,49,0.00,,,0.00,,2013-06-16 19:43:00,
2013-06-16 15:53:00,82.0,61.0,-100.00,SW,236,5.0,9.0,49,0.00,,,0.00,,2013-06-16 19:53:00,
2013-06-16 16:02:00,81.0,60.0,-100.00,NW,312,5.0,9.0,49,0.00,,,0.00,,2013-06-16 20:02:00,
2013-06-16 16:12:00,81.0,60.0,-100.00,NW,312,5.0,9.0,49,0.00,,,0.00,,2013-06-16 20:12:00,
2013-06-16 16:22:00,81.0,60.0,-100.00,NW,312,5.0,9.0,49,0.00,,,0.00,,2013-06-16 20:22:00,
2013-06-16 16:33:00,83.0,61.0,-100.00,WSW,251,2.0,4.0,47,0.00,,,0.00,,2013-06-16 20:33:00,
2013-06-16 16:42:00,83.0,63.0,-100.00,SSW,209,5.0,8.0,51,0.00,,,0.00,,2013-06-16 20:42:00,
2013-06-16 16:53:00,83.0,63.0,-100.00,SSW,209,5.0,8.0,51,0.00,,,0.00,,2013-06-16 20:53:00,
2013-06-16 17:02:00,83.0,61.0,-100.00,SW,227,5.0,8.0,47,0.00,,,0.00,,2013-06-16 21:02:00,
2013-06-16 17:11:00,83.0,61.0,-100.00,SW,227,5.0,8.0,47,0.00,,,0.00,,2013-06-16 21:11:00,
2013-06-16 17:22:00,83.0,61.0,-100.00,SW,227,5.0,8.0,47,0.00,,,0.00,,2013-06-16 21:22:00,
2013-06-16 17:33:00,82.0,62.0,-100.00,SSW,206,7.0,11.0,50,0.00,,,0.00,,2013-06-16 21:33:00,
2013-06-16 17:42:00,80.0,62.0,-100.00,SW,226,7.0,12.0,55,0.00,,,0.00,,2013-06-16 21:42:00,
2013-06-16 17:53:00,80.0,62.0,-100.00,SW,226,7.0,12.0,55,0.00,,,0.00,,2013-06-16 21:53:00,
2013-06-16 18:02:00,81.0,64.0,-100.00,SW,215,4.0,6.0,57,0.00,,,0.00,,2013-06-16 22:02:00,
2013-06-16 18:12:00,81.0,64.0,-100.00,SW,215,4.0,6.0,57,0.00,,,0.00,,2013-06-16 22:12:00,
2013-06-16 18:22:00,81.0,64.0,-100.00,SW,215,4.0,6.0,57,0.00,,,0.00,,2013-06-16 22:22:00,
2013-06-16 18:32:00,80.0,63.0,-100.00,SW,234,6.0,9.0,56,0.00,,,0.00,,2013-06-16 22:32:00,
2013-06-16 18:42:00,80.0,63.0,-100.00,South,188,4.0,7.0,57,0.00,,,0.00,,2013-06-16 22:42:00,
2013-06-16 18:52:00,80.0,63.0,-100.00,South,188,4.0,7.0,57,0.00,,,0.00,,2013-06-16 22:52:00,
2013-06-16 19:02:00,81.0,65.0,-100.00,SW,216,4.0,7.0,58,0.00,,,0.00,,2013-06-16 23:02:00,
2013-06-16 19:11:00,81.0,65.0,-100.00,SW,216,4.0,7.0,58,0.00,,,0.00,,2013-06-16 23:11:00,
2013-06-16 19:22:00,81.0,65.0,-100.00,SW,216,4.0,7.0,58,0.00,,,0.00,,2013-06-16 23:22:00,
2013-06-16 19:32:00,80.0,63.0,-100.00,South,184,2.0,4.0,58,0.00,,,0.00,,2013-06-16 23:32:00,
2013-06-16 19:42:00,78.0,60.0,-100.00,WSW,241,8.0,15.0,54,0.00,,,0.00,,2013-06-16 23:42:00,
2013-06-16 19:52:00,78.0,60.0,-100.00,WSW,241,8.0,15.0,54,0.00,,,0.00,,2013-06-16 23:52:00,
2013-06-16 20:02:00,76.0,61.0,-100.00,NW,304,4.0,6.0,60,0.27,,,0.03,,2013-06-17 00:02:00,
2013-06-16 20:12:00,76.0,61.0,-100.00,NW,304,4.0,6.0,60,0.27,,,0.03,,2013-06-17 00:12:00,
2013-06-16 20:22:00,76.0,61.0,-100.00,NW,304,4.0,6.0,60,0.27,,,0.03,,2013-06-17 00:22:00,
2013-06-16 20:32:00,73.0,63.0,-100.00,NW,318,2.0,4.0,71,0.00,,,0.06,,2013-06-17 00:32:00,
2013-06-16 20:43:00,73.0,63.0,-100.00,South,178,3.0,4.0,71,0.00,,,0.06,,2013-06-17 00:43:00,
2013-06-16 20:51:00,73.0,64.0,-100.00,WSW,241,1.0,3.0,72,0.00,,,0.06,,2013-06-17 00:51:00,
2013-06-16 20:52:00,73.0,63.0,-100.00,South,178,3.0,4.0,71,0.00,,,0.06,,2013-06-17 00:52:00,
2013-06-16 21:02:00,73.0,63.0,-100.00,WSW,244,2.0,4.0,70,0.00,,,0.06,,2013-06-17 01:02:00,
2013-06-16 21:12:00,73.0,63.0,-100.00,WSW,244,2.0,4.0,70,0.00,,,0.06,,2013-06-17 01:12:00,
2013-06-16 21:22:00,73.0,63.0,-100.00,WSW,244,2.0,4.0,70,0.00,,,0.06,,2013-06-17 01:22:00,
2013-06-16 21:32:00,73.0,64.0,-100.00,WSW,241,1.0,3.0,72,0.00,,,0.06,,2013-06-17 01:32:00,
2013-06-16 21:43:00,73.0,64.0,-100.00,WSW,241,1.0,3.0,72,0.00,,,0.06,,2013-06-17 01:43:00,
2013-06-16 22:03:00,69.0,65.0,-100.00,NNW,336,1.0,2.0,87,0.28,,,0.26,,2013-06-17 02:03:00,
2013-06-16 22:12:00,69.0,65.0,-100.00,NNW,336,1.0,2.0,87,0.28,,,0.26,,2013-06-17 02:12:00,
2013-06-16 22:22:00,69.0,65.0,-100.00,NNW,336,1.0,2.0,87,0.28,,,0.26,,2013-06-17 02:22:00,
2013-06-16 22:34:00,70.0,65.0,-100.00,WNW,288,3.0,4.0,85,0.07,,,0.31,,2013-06-17 02:34:00,
2013-06-16 22:43:00,69.0,65.0,-100.00,WNW,282,1.0,2.0,88,0.34,,,0.40,,2013-06-17 02:43:00,
2013-06-16 22:53:00,69.0,65.0,-100.00,WNW,282,1.0,2.0,88,0.34,,,0.40,,2013-06-17 02:53:00,
2013-06-16 23:02:00,68.0,64.0,-100.00,SE,145,2.0,3.0,86,0.00,,,0.43,,2013-06-17 03:02:00,
2013-06-16 23:12:00,68.0,64.0,-100.00,SE,145,2.0,3.0,86,0.00,,,0.43,,2013-06-17 03:12:00,
2013-06-16 23:22:00,68.0,64.0,-100.00,SE,145,2.0,3.0,86,0.00,,,0.43,,2013-06-17 03:22:00,
2013-06-16 23:33:00,-999.0,64.0,-100.00,NW,308,2.0,4.0,87,0.00,,,0.44,,2013-06-17 03:33:00,
2013-06-16 23:44:00,-999.0,64.0,-100.00,NW,308,2.0,4.0,87,0.00,,,0.44,,2013-06-17 03:44:00,
2013-06-16 23:53:00,67.0,64.0,-100.00,South,185,2.0,4.0,90,0.00,,,0.44,,2013-06-17 03:53:00,